Pahala, Hawaii
Current Conditions -  °F | °C
As of 5:56 AM on Wednesday 26 Nov 2014 (Local Time) from PHSF Reporting Station
Clear Clear  
Wind Chill: 38°   Ceiling: Unl
Heat Index: 42°   Visibility: 10mi
Dew Point: 25°   Wind: 7mph
Humidity: 49%   Direction: 130°SE
Pressure: 30.32"   Gusts: NA
Location:  19.2°N, 155.47°W
Report Text: PHSF 261556Z AUTO 13006KT 10SM CLR 06/M04 A3032 RMK AO2 SLP175 T00581041 $
Loading
Personal Weather Stations






























Interactive Weather Map New forecast layout! Learn more

10-Day Weather Forecast

Advertisements
Track Severe Weather on mobile